createdAt,value
2022-08-21T00:00:29.369Z,23.12
2022-08-21T00:03:02.795Z,23.12
2022-08-21T00:05:34.791Z,23.08
2022-08-21T00:08:04.930Z,23.04
2022-08-21T00:10:35.154Z,23.05
2022-08-21T00:13:05.373Z,23.02
2022-08-21T00:15:40.609Z,23.00
2022-08-21T00:18:13.338Z,23.01
2022-08-21T00:20:44.834Z,23.04
2022-08-21T00:23:15.743Z,23.04
2022-08-21T00:25:46.891Z,23.02
2022-08-21T00:28:17.652Z,23.00
2022-08-21T00:30:50.377Z,23.00
2022-08-21T00:33:20.553Z,23.00
2022-08-21T00:35:50.688Z,23.02
2022-08-21T00:38:20.838Z,22.97
2022-08-21T00:40:55.485Z,23.00
2022-08-21T00:43:31.473Z,22.99
2022-08-21T00:46:04.787Z,22.96
2022-08-21T00:48:36.376Z,23.01
2022-08-21T00:51:11.031Z,22.94
2022-08-21T00:53:44.353Z,22.98
2022-08-21T00:56:21.142Z,22.95
2022-08-21T00:58:54.856Z,22.92
2022-08-21T01:01:31.693Z,22.90
2022-08-21T01:04:02.650Z,22.90
2022-08-21T01:06:33.210Z,22.87
2022-08-21T01:09:03.311Z,22.84
2022-08-21T01:11:34.008Z,22.82
2022-08-21T01:14:04.744Z,22.79
2022-08-21T01:16:37.662Z,22.79
2022-08-21T01:19:08.134Z,22.76
2022-08-21T01:21:40.970Z,22.67
2022-08-21T01:24:14.823Z,22.55
2022-08-21T01:26:46.333Z,22.56
2022-08-21T01:29:20.589Z,22.51
2022-08-21T01:31:50.742Z,22.47
2022-08-21T01:34:20.971Z,22.45
2022-08-21T01:36:53.866Z,22.43
2022-08-21T01:39:24.293Z,22.39
2022-08-21T01:41:54.475Z,22.38
2022-08-21T01:44:25.722Z,22.26
2022-08-21T01:47:01.664Z,22.34
2022-08-21T01:49:31.890Z,22.33
2022-08-21T01:52:04.976Z,22.31
2022-08-21T01:54:35.626Z,22.30
2022-08-21T01:57:06.962Z,22.30
2022-08-21T01:59:38.054Z,22.31
2022-08-21T02:02:08.907Z,22.29
2022-08-21T02:04:39.185Z,22.20
2022-08-21T02:07:12.291Z,22.32
2022-08-21T02:09:43.613Z,22.32
2022-08-21T02:12:14.139Z,22.34
2022-08-21T02:14:44.306Z,22.34
2022-08-21T02:17:15.189Z,22.34
2022-08-21T02:19:45.273Z,22.35
2022-08-21T02:22:18.028Z,22.31
2022-08-21T02:24:54.371Z,22.29
2022-08-21T02:27:27.272Z,22.27
2022-08-21T02:29:59.864Z,22.27
2022-08-21T02:32:30.072Z,22.20
2022-08-21T02:35:00.219Z,22.19
2022-08-21T02:37:32.969Z,22.18
2022-08-21T02:40:03.976Z,22.12
2022-08-21T02:42:34.221Z,22.13
2022-08-21T02:45:04.286Z,22.12
2022-08-21T02:47:34.840Z,22.13
2022-08-21T02:50:05.164Z,22.09
2022-08-21T02:52:38.084Z,22.09
2022-08-21T02:55:09.037Z,22.08
2022-08-21T02:57:39.133Z,22.08
2022-08-21T03:00:11.858Z,22.03
2022-08-21T03:02:41.955Z,22.02
2022-08-21T03:05:13.781Z,22.03
2022-08-21T03:07:47.497Z,22.04
2022-08-21T03:10:19.958Z,22.00
2022-08-21T03:12:50.269Z,21.97
2022-08-21T03:15:23.454Z,21.87
2022-08-21T03:17:55.692Z,21.91
2022-08-21T03:20:28.000Z,21.97
2022-08-21T03:23:01.087Z,21.93
2022-08-21T03:25:40.432Z,21.91
2022-08-21T03:28:14.279Z,21.88
2022-08-21T03:30:45.150Z,21.89
2022-08-21T03:33:15.817Z,21.88
2022-08-21T03:35:47.573Z,21.84
2022-08-21T03:38:25.905Z,21.89
2022-08-21T03:40:56.933Z,21.88
2022-08-21T03:43:27.715Z,21.84
2022-08-21T03:46:01.468Z,21.83
2022-08-21T03:48:31.663Z,21.82
2022-08-21T03:51:01.969Z,21.76
2022-08-21T03:53:35.142Z,21.86
2022-08-21T03:56:05.329Z,21.86
2022-08-21T03:58:35.516Z,21.84
2022-08-21T04:01:07.376Z,21.84
2022-08-21T04:03:39.750Z,21.87
2022-08-21T04:06:11.248Z,21.83
2022-08-21T04:08:44.289Z,21.82
2022-08-21T04:11:15.888Z,21.81
2022-08-21T04:13:46.255Z,21.77
2022-08-21T04:16:16.841Z,21.75
2022-08-21T04:18:46.925Z,21.80
2022-08-21T04:21:17.044Z,21.78
2022-08-21T04:23:49.734Z,21.78
2022-08-21T04:26:19.953Z,21.80
2022-08-21T04:28:50.072Z,21.78
2022-08-21T04:31:20.169Z,21.80
2022-08-21T04:33:50.261Z,21.81
2022-08-21T04:36:20.900Z,21.80
2022-08-21T04:38:57.328Z,21.76
2022-08-21T04:41:28.119Z,21.80
2022-08-21T04:43:59.054Z,21.81
2022-08-21T04:46:29.263Z,21.75
2022-08-21T04:49:00.113Z,21.73
2022-08-21T04:51:36.039Z,21.73
2022-08-21T04:54:13.169Z,21.72
2022-08-21T04:56:49.334Z,21.78
2022-08-21T04:59:22.705Z,21.83
2022-08-21T05:01:55.346Z,21.85
2022-08-21T05:04:28.758Z,21.88
2022-08-21T05:07:03.916Z,21.91
2022-08-21T05:09:38.339Z,21.92
2022-08-21T05:12:09.063Z,21.94
2022-08-21T05:14:39.179Z,21.93
2022-08-21T05:17:09.948Z,21.90
2022-08-21T05:19:41.030Z,21.80
2022-08-21T05:22:11.166Z,21.76
2022-08-21T05:24:44.203Z,21.68
2022-08-21T05:27:17.806Z,21.70
2022-08-21T05:29:48.464Z,21.72
2022-08-21T05:32:20.641Z,21.73
2022-08-21T05:34:51.007Z,21.75
2022-08-21T05:37:21.096Z,21.77
2022-08-21T05:40:20.383Z,21.78
2022-08-21T05:42:44.161Z,21.81
2022-08-21T05:45:26.955Z,21.90
2022-08-21T05:48:18.095Z,21.83
2022-08-21T05:50:50.474Z,21.78
2022-08-21T05:53:22.160Z,21.81
2022-08-21T05:55:55.443Z,21.85
2022-08-21T05:58:26.192Z,21.90
2022-08-21T06:00:56.316Z,21.94
2022-08-21T06:03:28.872Z,21.97
2022-08-21T06:05:59.718Z,21.96
2022-08-21T06:08:30.553Z,21.92
2022-08-21T06:11:04.766Z,21.93
2022-08-21T06:13:34.890Z,21.97
2022-08-21T06:16:08.331Z,22.05
2022-08-21T06:18:40.615Z,22.11
2022-08-21T06:21:14.647Z,22.17
2022-08-21T06:23:44.859Z,22.23
2022-08-21T06:26:18.026Z,22.29
2022-08-21T06:28:48.161Z,22.30
2022-08-21T06:31:21.346Z,22.35
2022-08-21T06:33:51.677Z,22.39
2022-08-21T06:36:22.694Z,22.35
2022-08-21T06:38:52.877Z,22.35
2022-08-21T06:41:26.503Z,22.38
2022-08-21T06:43:58.192Z,22.39
2022-08-21T06:46:31.425Z,22.45
2022-08-21T06:49:02.003Z,22.43
2022-08-21T06:51:32.113Z,22.30
2022-08-21T06:54:04.906Z,22.38
2022-08-21T06:56:39.339Z,22.22
2022-08-21T06:59:12.964Z,22.19
2022-08-21T07:01:43.168Z,22.18
2022-08-21T07:04:13.344Z,22.12
2022-08-21T07:06:43.479Z,22.15
2022-08-21T07:09:13.775Z,22.26
2022-08-21T07:11:48.275Z,22.11
2022-08-21T07:14:20.193Z,22.12
2022-08-21T07:16:51.861Z,22.37
2022-08-21T07:19:22.645Z,22.53
2022-08-21T07:21:52.855Z,22.51
2022-08-21T07:24:23.107Z,22.54
2022-08-21T07:26:55.862Z,22.61
2022-08-21T07:29:26.091Z,22.78
2022-08-21T07:31:56.284Z,22.86
2022-08-21T07:34:26.437Z,22.66
2022-08-21T07:36:56.648Z,22.73
2022-08-21T07:39:28.691Z,22.57
2022-08-21T07:42:05.038Z,22.72
2022-08-21T07:44:38.088Z,22.82
2022-08-21T07:47:08.378Z,22.97
2022-08-21T07:49:38.710Z,23.08
2022-08-21T07:52:09.097Z,23.24
2022-08-21T07:54:39.272Z,23.20
2022-08-21T07:57:14.719Z,23.18
2022-08-21T07:59:48.964Z,23.30
2022-08-21T08:02:26.281Z,23.44
2022-08-21T08:04:56.689Z,23.53
2022-08-21T08:07:26.875Z,23.74
2022-08-21T08:09:57.092Z,23.77
2022-08-21T08:12:30.690Z,23.81
2022-08-21T08:15:00.753Z,23.91
2022-08-21T08:17:33.328Z,24.02
2022-08-21T08:20:04.623Z,24.11
2022-08-21T08:22:34.905Z,24.15
2022-08-21T08:25:09.300Z,24.19
2022-08-21T08:27:43.208Z,24.31
2022-08-21T08:30:16.702Z,24.32
2022-08-21T08:32:46.863Z,24.16
2022-08-21T08:35:23.628Z,24.21
2022-08-21T08:37:55.608Z,24.17
2022-08-21T08:40:35.296Z,24.06
2022-08-21T08:43:09.092Z,24.12
2022-08-21T08:45:43.554Z,24.07
2022-08-21T08:48:18.544Z,24.06
2022-08-21T08:50:53.420Z,23.99
2022-08-21T08:53:28.008Z,24.04
2022-08-21T08:55:58.160Z,23.96
2022-08-21T08:58:34.074Z,23.93
2022-08-21T09:01:04.551Z,23.96
2022-08-21T09:03:35.162Z,24.19
2022-08-21T09:06:20.120Z,23.98
2022-08-21T09:08:57.870Z,24.18
2022-08-21T09:11:37.023Z,24.22
2022-08-21T09:14:20.843Z,24.24
2022-08-21T09:16:55.531Z,24.50
2022-08-21T09:19:40.370Z,24.56
2022-08-21T09:22:19.354Z,24.63
2022-08-21T09:25:02.306Z,24.76
2022-08-21T09:27:34.492Z,24.87
2022-08-21T09:30:10.850Z,24.82
2022-08-21T09:32:42.981Z,24.72
2022-08-21T09:35:15.783Z,24.74
2022-08-21T09:37:52.855Z,24.86
2022-08-21T09:40:33.458Z,24.68
2022-08-21T09:43:06.041Z,24.81
2022-08-21T09:45:39.866Z,24.88
2022-08-21T09:48:14.957Z,24.96
2022-08-21T09:50:46.533Z,25.09
2022-08-21T09:53:22.117Z,25.12
2022-08-21T09:56:08.596Z,25.12
2022-08-21T09:58:40.870Z,25.43
2022-08-21T10:01:18.417Z,25.64
2022-08-21T10:03:49.058Z,25.66
2022-08-21T10:06:27.783Z,25.79
2022-08-21T10:09:12.407Z,25.89
2022-08-21T10:11:56.491Z,25.82
2022-08-21T10:14:45.916Z,26.00
2022-08-21T10:17:27.210Z,26.05
2022-08-21T10:20:05.410Z,26.08
2022-08-21T10:22:47.226Z,26.19
2022-08-21T10:25:23.220Z,26.17
2022-08-21T10:28:10.167Z,25.91
2022-08-21T10:30:53.646Z,25.90
2022-08-21T10:33:42.441Z,25.90
2022-08-21T10:36:17.613Z,26.09
2022-08-21T10:39:26.782Z,26.20
2022-08-21T10:42:21.844Z,26.27
2022-08-21T10:45:13.508Z,26.39
2022-08-21T10:47:52.907Z,26.27
2022-08-21T10:50:35.552Z,25.94
2022-08-21T10:53:20.146Z,25.93
2022-08-21T10:55:59.739Z,25.91
2022-08-21T10:58:33.181Z,26.00
2022-08-21T11:01:12.053Z,26.00
2022-08-21T11:03:46.433Z,26.04
2022-08-21T11:06:24.069Z,26.13
2022-08-21T11:09:00.843Z,26.43
2022-08-21T11:11:36.183Z,26.41
2022-08-21T11:14:15.576Z,25.92
2022-08-21T11:16:49.754Z,26.20
2022-08-21T11:19:29.117Z,26.52
2022-08-21T11:22:14.849Z,26.45
2022-08-21T11:24:52.552Z,26.23
2022-08-21T11:27:27.936Z,26.55
2022-08-21T11:30:01.378Z,26.73
2022-08-21T11:32:57.456Z,26.44
2022-08-21T11:35:38.625Z,26.62
2022-08-21T11:38:31.271Z,26.42
2022-08-21T11:41:27.015Z,26.53
2022-08-21T11:44:05.868Z,26.76
2022-08-21T11:46:44.675Z,26.61
2022-08-21T11:49:44.222Z,26.76
2022-08-21T11:52:22.792Z,26.99
2022-08-21T11:55:01.791Z,26.74
2022-08-21T11:57:38.018Z,27.21
2022-08-21T12:00:15.284Z,27.18
2022-08-21T12:02:49.454Z,27.28
2022-08-21T12:05:30.806Z,27.57
2022-08-21T12:08:07.614Z,27.11
2022-08-21T12:10:43.884Z,27.53
2022-08-21T12:13:40.365Z,27.30
2022-08-21T12:16:17.554Z,27.57
2022-08-21T12:18:48.113Z,27.66
2022-08-21T12:21:25.693Z,27.90
2022-08-21T12:24:07.294Z,27.38
2022-08-21T12:26:53.315Z,27.56
2022-08-21T12:29:31.887Z,27.94
2022-08-21T12:32:06.419Z,28.32
2022-08-21T12:34:41.054Z,28.60
2022-08-21T12:37:26.774Z,28.91
2022-08-21T12:39:59.022Z,29.05
2022-08-21T12:42:38.697Z,29.26
2022-08-21T12:45:20.994Z,29.22
2022-08-21T12:47:55.215Z,29.29
2022-08-21T12:50:37.069Z,29.14
2022-08-21T12:53:18.315Z,29.00
2022-08-21T12:55:51.082Z,28.79
2022-08-21T12:58:26.712Z,28.66
2022-08-21T13:01:00.427Z,28.89
2022-08-21T13:03:32.405Z,28.61
2022-08-21T13:06:03.117Z,28.86
2022-08-21T13:08:37.596Z,28.86
2022-08-21T13:11:15.076Z,28.58
2022-08-21T13:13:53.135Z,28.68
2022-08-21T13:16:32.270Z,28.68
2022-08-21T13:19:06.524Z,28.54
2022-08-21T13:21:42.720Z,28.34
2022-08-21T13:24:41.268Z,28.47
2022-08-21T13:27:21.881Z,28.47
2022-08-21T13:30:05.057Z,28.23
2022-08-21T13:32:38.894Z,28.31
2022-08-21T13:35:15.681Z,28.41
2022-08-21T13:37:47.227Z,28.57
2022-08-21T13:40:21.599Z,28.64
2022-08-21T13:42:52.691Z,28.68
2022-08-21T13:45:28.539Z,28.63
2022-08-21T13:47:59.203Z,28.50
2022-08-21T13:50:33.912Z,28.41
2022-08-21T13:53:06.753Z,28.24
2022-08-21T13:55:43.991Z,28.27
2022-08-21T13:58:15.417Z,28.25
2022-08-21T14:00:54.120Z,28.24
2022-08-21T14:03:33.879Z,28.10
2022-08-21T14:06:04.339Z,27.96
2022-08-21T14:08:38.417Z,28.03
2022-08-21T14:11:09.883Z,27.97
2022-08-21T14:13:44.160Z,28.11
2022-08-21T14:16:24.246Z,28.16
2022-08-21T14:19:01.708Z,28.05
2022-08-21T14:21:38.094Z,28.20
2022-08-21T14:24:12.440Z,28.24
2022-08-21T14:26:50.450Z,28.24
2022-08-21T14:29:23.305Z,28.31
2022-08-21T14:31:58.579Z,28.34
2022-08-21T14:34:35.810Z,28.32
2022-08-21T14:37:06.336Z,28.27
2022-08-21T14:39:36.746Z,28.20
2022-08-21T14:42:07.737Z,27.91
2022-08-21T14:44:37.887Z,27.76
2022-08-21T14:47:11.769Z,27.28
2022-08-21T14:49:42.398Z,27.38
2022-08-21T14:52:12.893Z,27.42
2022-08-21T14:54:43.036Z,27.55
2022-08-21T14:57:15.424Z,27.66
2022-08-21T14:59:45.617Z,27.72
2022-08-21T15:02:18.352Z,27.75
2022-08-21T15:04:48.451Z,27.82
2022-08-21T15:07:18.697Z,27.81
2022-08-21T15:09:48.853Z,27.76
2022-08-21T15:12:19.380Z,27.68
2022-08-21T15:14:49.848Z,27.62
2022-08-21T15:17:22.929Z,27.46
2022-08-21T15:19:53.160Z,27.39
2022-08-21T15:22:28.023Z,27.42
2022-08-21T15:24:58.716Z,27.40
2022-08-21T15:27:28.908Z,27.30
2022-08-21T15:29:59.583Z,27.02
2022-08-21T15:32:32.681Z,26.97
2022-08-21T15:35:03.366Z,26.92
2022-08-21T15:37:33.721Z,26.78
2022-08-21T15:40:04.274Z,26.80
2022-08-21T15:42:35.105Z,26.95
2022-08-21T15:45:06.391Z,26.86
2022-08-21T15:47:41.213Z,26.76
2022-08-21T15:50:13.841Z,26.74
2022-08-21T15:52:44.106Z,26.66
2022-08-21T15:55:15.410Z,26.55
2022-08-21T15:57:57.331Z,26.52
2022-08-21T16:00:29.320Z,26.52
2022-08-21T16:03:03.182Z,26.32
2022-08-21T16:05:33.442Z,26.21
2022-08-21T16:08:03.728Z,26.21
2022-08-21T16:10:33.949Z,26.12
2022-08-21T16:13:07.975Z,26.13
2022-08-21T16:15:38.311Z,26.08
2022-08-21T16:18:11.203Z,25.97
2022-08-21T16:20:41.395Z,25.76
2022-08-21T16:23:11.695Z,25.76
2022-08-21T16:25:43.415Z,25.73
2022-08-21T16:28:17.590Z,25.65
2022-08-21T16:30:50.655Z,25.65
2022-08-21T16:33:28.617Z,25.59
2022-08-21T16:36:00.398Z,25.54
2022-08-21T16:38:32.699Z,25.41
2022-08-21T16:41:05.917Z,25.40
2022-08-21T16:43:37.377Z,25.40
2022-08-21T16:46:08.345Z,25.46
2022-08-21T16:48:41.321Z,25.44
2022-08-21T16:51:11.445Z,25.33
2022-08-21T16:53:41.694Z,25.25
2022-08-21T16:56:13.410Z,25.13
2022-08-21T16:58:47.659Z,24.97
2022-08-21T17:01:20.793Z,24.82
2022-08-21T17:03:56.195Z,24.71
2022-08-21T17:06:28.870Z,24.64
2022-08-21T17:08:59.976Z,24.58
2022-08-21T17:11:38.068Z,24.56
2022-08-21T17:14:11.249Z,24.48
2022-08-21T17:16:42.747Z,24.40
2022-08-21T17:19:16.290Z,24.39
2022-08-21T17:21:46.594Z,24.34
2022-08-21T17:24:17.757Z,24.22
2022-08-21T17:26:48.514Z,24.19
2022-08-21T17:29:19.075Z,24.09
2022-08-21T17:31:51.633Z,24.12
2022-08-21T17:34:31.084Z,24.06
2022-08-21T17:37:01.971Z,24.01
2022-08-21T17:39:33.356Z,23.93
2022-08-21T17:42:11.320Z,23.86
2022-08-21T17:44:44.474Z,23.86
2022-08-21T17:47:18.033Z,23.85
2022-08-21T17:49:51.127Z,23.79
2022-08-21T17:52:21.343Z,23.71
2022-08-21T17:54:51.525Z,23.64
2022-08-21T17:57:28.713Z,23.56
2022-08-21T18:00:01.690Z,23.59
2022-08-21T18:02:35.987Z,23.58
2022-08-21T18:05:14.775Z,23.56
2022-08-21T18:07:45.346Z,23.53
2022-08-21T18:10:15.786Z,23.54
2022-08-21T18:12:47.479Z,23.50
2022-08-21T18:15:20.044Z,23.49
2022-08-21T18:17:52.633Z,23.48
2022-08-21T18:20:28.877Z,23.45
2022-08-21T18:23:00.056Z,23.42
2022-08-21T18:25:30.565Z,23.44
2022-08-21T18:28:02.491Z,23.44
2022-08-21T18:30:34.604Z,23.46
2022-08-21T18:33:25.748Z,23.46
2022-08-21T18:36:18.351Z,23.44
2022-08-21T18:39:35.040Z,23.45
2022-08-21T18:42:25.575Z,23.44
2022-08-21T18:45:17.662Z,23.39
2022-08-21T18:48:12.137Z,23.35
2022-08-21T18:50:45.700Z,23.31
2022-08-21T18:53:27.576Z,23.24
2022-08-21T18:58:51.053Z,23.14
2022-08-21T19:01:21.131Z,23.08
2022-08-21T19:03:51.390Z,22.98
2022-08-21T19:06:21.517Z,22.90
2022-08-21T19:08:56.002Z,22.81
2022-08-21T19:11:27.958Z,22.68
2022-08-21T19:14:01.606Z,22.60
2022-08-21T19:16:34.018Z,22.63
2022-08-21T19:19:05.239Z,22.66
2022-08-21T19:21:35.518Z,22.62
2022-08-21T19:24:17.376Z,22.62
2022-08-21T19:27:00.407Z,22.62
2022-08-21T19:29:35.103Z,22.59
2022-08-21T19:32:08.037Z,22.61
2022-08-21T19:34:41.045Z,22.58
2022-08-21T19:37:16.371Z,22.57
2022-08-21T19:39:50.725Z,22.58
2022-08-21T19:42:22.282Z,22.57
2022-08-21T19:44:59.147Z,22.58
2022-08-21T19:47:31.548Z,22.56
2022-08-21T19:50:05.108Z,22.55
2022-08-21T19:52:51.419Z,22.52
2022-08-21T19:55:25.142Z,22.53
2022-08-21T19:57:56.102Z,22.51
2022-08-21T20:00:28.897Z,22.47
2022-08-21T20:02:59.155Z,22.47
2022-08-21T20:05:39.545Z,22.44
2022-08-21T20:08:11.665Z,22.48
2022-08-21T20:10:58.096Z,22.48
2022-08-21T20:13:32.559Z,22.47
2022-08-21T20:16:03.479Z,22.35
2022-08-21T20:18:36.623Z,22.35
2022-08-21T20:21:08.194Z,22.32
2022-08-21T20:23:48.776Z,22.29
2022-08-21T20:26:22.422Z,22.32
2022-08-21T20:28:53.355Z,22.32
2022-08-21T20:31:25.875Z,22.33
2022-08-21T20:33:58.089Z,22.33
2022-08-21T20:36:28.724Z,22.30
2022-08-21T20:38:58.819Z,22.27
2022-08-21T20:41:31.582Z,22.29
2022-08-21T20:44:04.433Z,22.31
2022-08-21T20:46:35.499Z,22.30
2022-08-21T20:49:08.303Z,22.24
2022-08-21T20:51:43.257Z,22.26
2022-08-21T20:54:23.763Z,22.20
2022-08-21T20:57:01.127Z,22.19
2022-08-21T20:59:44.393Z,22.21
2022-08-21T21:02:27.135Z,22.17
2022-08-21T21:05:05.371Z,22.05
2022-08-21T21:07:41.260Z,22.10
2022-08-21T21:10:18.051Z,22.10
2022-08-21T21:12:54.554Z,22.11
2022-08-21T21:15:30.983Z,22.04
2022-08-21T21:18:08.135Z,22.04
2022-08-21T21:20:48.797Z,22.03
2022-08-21T21:23:25.547Z,21.97
2022-08-21T21:26:04.032Z,21.96
2022-08-21T21:28:48.703Z,22.04
2022-08-21T21:31:21.455Z,22.05
2022-08-21T21:33:52.007Z,22.05
2022-08-21T21:36:31.807Z,22.06
2022-08-21T21:39:12.259Z,22.09
2022-08-21T21:44:56.776Z,22.06
2022-08-21T21:47:42.458Z,22.01
2022-08-21T21:50:24.357Z,21.98
2022-08-21T21:53:12.307Z,22.09
2022-08-21T21:56:11.790Z,22.13
2022-08-21T21:59:13.881Z,22.13
2022-08-21T22:01:52.895Z,22.08
2022-08-21T22:04:31.255Z,22.11
2022-08-21T22:07:08.890Z,22.12
2022-08-21T22:09:47.055Z,22.05
2022-08-21T22:12:32.957Z,22.09
2022-08-21T22:15:03.101Z,22.10
2022-08-21T22:17:47.894Z,22.02
2022-08-21T22:20:23.112Z,22.08
2022-08-21T22:22:58.290Z,22.12
2022-08-21T22:25:32.803Z,22.13
2022-08-21T22:28:07.239Z,22.05
2022-08-21T22:30:45.358Z,22.12
2022-08-21T22:33:21.572Z,22.12
2022-08-21T22:35:54.229Z,22.11
2022-08-21T22:38:34.896Z,22.08
2022-08-21T22:41:17.587Z,22.01
2022-08-21T22:43:56.185Z,22.05
2022-08-21T22:46:36.697Z,22.04
2022-08-21T22:49:15.729Z,22.05
2022-08-21T22:51:49.454Z,22.04
2022-08-21T22:54:26.674Z,22.04
2022-08-21T22:57:03.075Z,22.02
2022-08-21T22:59:35.995Z,22.00
2022-08-21T23:02:12.420Z,22.01
2022-08-21T23:04:53.883Z,21.99
2022-08-21T23:07:49.775Z,21.96
2022-08-21T23:10:28.538Z,21.94
2022-08-21T23:13:06.227Z,21.95
2022-08-21T23:18:50.493Z,21.96
2022-08-21T23:21:31.361Z,21.96
2022-08-21T23:24:24.581Z,21.99
2022-08-21T23:27:08.125Z,21.97
2022-08-21T23:29:49.600Z,21.92
2022-08-21T23:32:47.014Z,21.88
2022-08-21T23:35:23.908Z,21.89
2022-08-21T23:38:09.435Z,21.90
2022-08-21T23:40:50.989Z,21.90
2022-08-21T23:43:38.792Z,21.88
2022-08-21T23:46:34.552Z,21.88
2022-08-21T23:49:24.310Z,21.81
2022-08-21T23:52:05.793Z,21.82
2022-08-21T23:54:49.070Z,21.81
2022-08-21T23:57:33.302Z,21.82
